sensor_id;sensor_type;location;lat;lon;timestamp;P1;durP1;ratioP1;P2;durP2;ratioP2
78893;SDS011;68282;42.698;23.350;2024-03-06T00:02:22;14.93;;;8.18;;
78893;SDS011;68282;42.698;23.350;2024-03-06T00:04:48;13.38;;;7.47;;
78893;SDS011;68282;42.698;23.350;2024-03-06T00:07:13;15.23;;;9.18;;
78893;SDS011;68282;42.698;23.350;2024-03-06T00:09:39;15.73;;;9.27;;
78893;SDS011;68282;42.698;23.350;2024-03-06T00:12:04;15.18;;;8.75;;
78893;SDS011;68282;42.698;23.350;2024-03-06T00:14:31;19.67;;;9.40;;
78893;SDS011;68282;42.698;23.350;2024-03-06T00:16:56;16.02;;;9.32;;
78893;SDS011;68282;42.698;23.350;2024-03-06T00:19:22;14.35;;;7.88;;
78893;SDS011;68282;42.698;23.350;2024-03-06T00:21:48;18.38;;;8.63;;
78893;SDS011;68282;42.698;23.350;2024-03-06T00:24:14;15.90;;;8.88;;
78893;SDS011;68282;42.698;23.350;2024-03-06T00:26:41;18.08;;;9.13;;
78893;SDS011;68282;42.698;23.350;2024-03-06T00:29:07;16.83;;;8.43;;
78893;SDS011;68282;42.698;23.350;2024-03-06T00:31:34;16.35;;;8.10;;
78893;SDS011;68282;42.698;23.350;2024-03-06T00:33:59;17.40;;;8.23;;
78893;SDS011;68282;42.698;23.350;2024-03-06T00:36:25;14.45;;;7.40;;
78893;SDS011;68282;42.698;23.350;2024-03-06T00:38:51;14.45;;;7.45;;
78893;SDS011;68282;42.698;23.350;2024-03-06T00:41:17;14.40;;;7.53;;
78893;SDS011;68282;42.698;23.350;2024-03-06T00:43:42;13.70;;;8.13;;
78893;SDS011;68282;42.698;23.350;2024-03-06T00:46:08;13.90;;;7.85;;
78893;SDS011;68282;42.698;23.350;2024-03-06T00:48:34;14.50;;;7.18;;
78893;SDS011;68282;42.698;23.350;2024-03-06T00:50:59;14.75;;;8.05;;
78893;SDS011;68282;42.698;23.350;2024-03-06T00:53:24;16.65;;;8.15;;
78893;SDS011;68282;42.698;23.350;2024-03-06T00:55:50;17.25;;;8.00;;
78893;SDS011;68282;42.698;23.350;2024-03-06T00:58:15;13.23;;;7.15;;
78893;SDS011;68282;42.698;23.350;2024-03-06T01:00:41;13.70;;;7.63;;
78893;SDS011;68282;42.698;23.350;2024-03-06T01:03:06;14.48;;;7.47;;
78893;SDS011;68282;42.698;23.350;2024-03-06T01:05:32;12.05;;;7.55;;
78893;SDS011;68282;42.698;23.350;2024-03-06T01:07:58;14.63;;;8.35;;
78893;SDS011;68282;42.698;23.350;2024-03-06T01:10:24;15.43;;;7.88;;
78893;SDS011;68282;42.698;23.350;2024-03-06T01:12:50;14.65;;;8.50;;
78893;SDS011;68282;42.698;23.350;2024-03-06T01:15:15;16.48;;;8.57;;
78893;SDS011;68282;42.698;23.350;2024-03-06T01:17:41;15.65;;;8.43;;
78893;SDS011;68282;42.698;23.350;2024-03-06T01:20:07;19.15;;;9.00;;
78893;SDS011;68282;42.698;23.350;2024-03-06T01:22:33;13.07;;;7.70;;
78893;SDS011;68282;42.698;23.350;2024-03-06T01:24:59;19.50;;;8.60;;
78893;SDS011;68282;42.698;23.350;2024-03-06T01:27:25;13.40;;;8.30;;
78893;SDS011;68282;42.698;23.350;2024-03-06T01:29:52;15.48;;;8.50;;
78893;SDS011;68282;42.698;23.350;2024-03-06T01:32:18;15.32;;;8.65;;
78893;SDS011;68282;42.698;23.350;2024-03-06T01:34:43;14.85;;;7.80;;
78893;SDS011;68282;42.698;23.350;2024-03-06T01:37:09;17.42;;;8.10;;
78893;SDS011;68282;42.698;23.350;2024-03-06T01:39:35;14.02;;;8.05;;
78893;SDS011;68282;42.698;23.350;2024-03-06T01:42:01;13.90;;;7.95;;
78893;SDS011;68282;42.698;23.350;2024-03-06T01:44:27;18.58;;;8.82;;
78893;SDS011;68282;42.698;23.350;2024-03-06T01:46:52;13.18;;;8.35;;
78893;SDS011;68282;42.698;23.350;2024-03-06T01:49:19;14.73;;;7.75;;
78893;SDS011;68282;42.698;23.350;2024-03-06T01:51:48;17.95;;;8.73;;
78893;SDS011;68282;42.698;23.350;2024-03-06T01:54:16;17.92;;;9.80;;
78893;SDS011;68282;42.698;23.350;2024-03-06T01:56:45;24.13;;;13.40;;
78893;SDS011;68282;42.698;23.350;2024-03-06T01:59:15;23.20;;;12.60;;
78893;SDS011;68282;42.698;23.350;2024-03-06T02:01:44;21.10;;;10.90;;
78893;SDS011;68282;42.698;23.350;2024-03-06T02:04:11;20.25;;;12.40;;
78893;SDS011;68282;42.698;23.350;2024-03-06T02:06:40;23.38;;;11.38;;
78893;SDS011;68282;42.698;23.350;2024-03-06T02:09:06;21.08;;;11.35;;
78893;SDS011;68282;42.698;23.350;2024-03-06T02:11:33;22.33;;;9.98;;
78893;SDS011;68282;42.698;23.350;2024-03-06T02:13:58;22.67;;;10.52;;
78893;SDS011;68282;42.698;23.350;2024-03-06T02:16:24;23.00;;;10.98;;
78893;SDS011;68282;42.698;23.350;2024-03-06T02:18:57;19.90;;;10.65;;
78893;SDS011;68282;42.698;23.350;2024-03-06T02:21:23;18.33;;;9.38;;
78893;SDS011;68282;42.698;23.350;2024-03-06T02:23:50;21.85;;;11.82;;
78893;SDS011;68282;42.698;23.350;2024-03-06T02:26:19;20.38;;;10.40;;
78893;SDS011;68282;42.698;23.350;2024-03-06T02:28:49;19.30;;;10.65;;
78893;SDS011;68282;42.698;23.350;2024-03-06T02:31:15;26.10;;;11.32;;
78893;SDS011;68282;42.698;23.350;2024-03-06T02:33:42;21.52;;;12.07;;
78893;SDS011;68282;42.698;23.350;2024-03-06T02:36:12;18.60;;;10.07;;
78893;SDS011;68282;42.698;23.350;2024-03-06T02:38:38;22.00;;;10.30;;
78893;SDS011;68282;42.698;23.350;2024-03-06T02:41:04;17.63;;;10.73;;
78893;SDS011;68282;42.698;23.350;2024-03-06T02:43:31;20.17;;;10.35;;
78893;SDS011;68282;42.698;23.350;2024-03-06T02:46:00;24.80;;;11.82;;
78893;SDS011;68282;42.698;23.350;2024-03-06T02:48:25;20.55;;;10.23;;
78893;SDS011;68282;42.698;23.350;2024-03-06T02:50:51;19.58;;;10.23;;
78893;SDS011;68282;42.698;23.350;2024-03-06T02:53:17;20.02;;;9.90;;
78893;SDS011;68282;42.698;23.350;2024-03-06T02:55:42;17.23;;;9.95;;
78893;SDS011;68282;42.698;23.350;2024-03-06T02:58:08;16.38;;;9.32;;
78893;SDS011;68282;42.698;23.350;2024-03-06T03:00:34;21.77;;;10.55;;
78893;SDS011;68282;42.698;23.350;2024-03-06T03:02:59;20.30;;;9.25;;
78893;SDS011;68282;42.698;23.350;2024-03-06T03:05:25;16.25;;;8.30;;
78893;SDS011;68282;42.698;23.350;2024-03-06T03:07:51;12.05;;;7.35;;
78893;SDS011;68282;42.698;23.350;2024-03-06T03:10:16;11.95;;;7.30;;
78893;SDS011;68282;42.698;23.350;2024-03-06T03:12:42;15.70;;;8.00;;
78893;SDS011;68282;42.698;23.350;2024-03-06T03:15:09;12.68;;;7.00;;
78893;SDS011;68282;42.698;23.350;2024-03-06T03:17:35;14.32;;;7.50;;
78893;SDS011;68282;42.698;23.350;2024-03-06T03:20:03;20.50;;;8.65;;
78893;SDS011;68282;42.698;23.350;2024-03-06T03:22:35;21.25;;;8.70;;
78893;SDS011;68282;42.698;23.350;2024-03-06T03:25:03;16.40;;;8.93;;
78893;SDS011;68282;42.698;23.350;2024-03-06T03:27:32;25.08;;;11.73;;
78893;SDS011;68282;42.698;23.350;2024-03-06T03:29:58;38.03;;;16.70;;
78893;SDS011;68282;42.698;23.350;2024-03-06T03:32:27;24.67;;;12.48;;
78893;SDS011;68282;42.698;23.350;2024-03-06T03:34:53;18.73;;;9.32;;
78893;SDS011;68282;42.698;23.350;2024-03-06T03:37:18;14.15;;;8.38;;
78893;SDS011;68282;42.698;23.350;2024-03-06T03:39:44;15.52;;;8.15;;
78893;SDS011;68282;42.698;23.350;2024-03-06T03:42:10;11.32;;;6.60;;
78893;SDS011;68282;42.698;23.350;2024-03-06T03:44:35;14.32;;;7.28;;
78893;SDS011;68282;42.698;23.350;2024-03-06T03:47:01;12.20;;;7.15;;
78893;SDS011;68282;42.698;23.350;2024-03-06T03:49:27;10.05;;;6.53;;
78893;SDS011;68282;42.698;23.350;2024-03-06T03:51:52;13.40;;;7.00;;
78893;SDS011;68282;42.698;23.350;2024-03-06T03:54:18;13.10;;;7.05;;
78893;SDS011;68282;42.698;23.350;2024-03-06T03:56:44;14.32;;;7.93;;
78893;SDS011;68282;42.698;23.350;2024-03-06T03:59:09;14.85;;;8.00;;
78893;SDS011;68282;42.698;23.350;2024-03-06T04:01:35;17.80;;;7.53;;
78893;SDS011;68282;42.698;23.350;2024-03-06T04:04:02;14.88;;;8.07;;
78893;SDS011;68282;42.698;23.350;2024-03-06T04:06:28;16.23;;;7.68;;
78893;SDS011;68282;42.698;23.350;2024-03-06T04:08:53;13.85;;;7.00;;
78893;SDS011;68282;42.698;23.350;2024-03-06T04:11:19;15.38;;;7.93;;
78893;SDS011;68282;42.698;23.350;2024-03-06T04:13:44;14.10;;;7.97;;
78893;SDS011;68282;42.698;23.350;2024-03-06T04:16:15;13.10;;;7.80;;
78893;SDS011;68282;42.698;23.350;2024-03-06T04:18:41;13.13;;;6.63;;
78893;SDS011;68282;42.698;23.350;2024-03-06T04:21:07;12.60;;;6.45;;
78893;SDS011;68282;42.698;23.350;2024-03-06T04:23:34;12.32;;;7.10;;
78893;SDS011;68282;42.698;23.350;2024-03-06T04:26:00;15.10;;;7.20;;
78893;SDS011;68282;42.698;23.350;2024-03-06T04:28:26;18.35;;;6.95;;
78893;SDS011;68282;42.698;23.350;2024-03-06T04:30:51;17.45;;;8.57;;
78893;SDS011;68282;42.698;23.350;2024-03-06T04:33:17;14.20;;;7.40;;
78893;SDS011;68282;42.698;23.350;2024-03-06T04:35:42;16.55;;;9.73;;
78893;SDS011;68282;42.698;23.350;2024-03-06T04:38:08;23.70;;;10.73;;
78893;SDS011;68282;42.698;23.350;2024-03-06T04:40:34;24.60;;;9.57;;
78893;SDS011;68282;42.698;23.350;2024-03-06T04:43:00;13.05;;;7.25;;
78893;SDS011;68282;42.698;23.350;2024-03-06T04:45:26;15.93;;;7.68;;
78893;SDS011;68282;42.698;23.350;2024-03-06T04:47:51;15.07;;;7.03;;
78893;SDS011;68282;42.698;23.350;2024-03-06T04:50:18;17.48;;;9.23;;
78893;SDS011;68282;42.698;23.350;2024-03-06T04:52:44;19.33;;;9.48;;
78893;SDS011;68282;42.698;23.350;2024-03-06T04:55:10;19.88;;;11.77;;
78893;SDS011;68282;42.698;23.350;2024-03-06T04:57:37;24.00;;;12.25;;
78893;SDS011;68282;42.698;23.350;2024-03-06T05:00:04;32.28;;;10.43;;
78893;SDS011;68282;42.698;23.350;2024-03-06T05:02:33;25.38;;;12.63;;
78893;SDS011;68282;42.698;23.350;2024-03-06T05:05:00;25.77;;;14.27;;
78893;SDS011;68282;42.698;23.350;2024-03-06T05:07:30;27.33;;;13.30;;
78893;SDS011;68282;42.698;23.350;2024-03-06T05:10:00;23.10;;;11.80;;
78893;SDS011;68282;42.698;23.350;2024-03-06T05:12:26;21.90;;;13.50;;
78893;SDS011;68282;42.698;23.350;2024-03-06T05:14:52;28.35;;;13.32;;
78893;SDS011;68282;42.698;23.350;2024-03-06T05:17:18;18.90;;;10.98;;
78893;SDS011;68282;42.698;23.350;2024-03-06T05:19:45;23.00;;;8.95;;
78893;SDS011;68282;42.698;23.350;2024-03-06T05:22:12;18.80;;;9.52;;
78893;SDS011;68282;42.698;23.350;2024-03-06T05:24:38;19.40;;;9.75;;
78893;SDS011;68282;42.698;23.350;2024-03-06T05:27:05;20.73;;;10.35;;
78893;SDS011;68282;42.698;23.350;2024-03-06T05:29:32;20.67;;;9.70;;
78893;SDS011;68282;42.698;23.350;2024-03-06T05:31:58;25.08;;;10.00;;
78893;SDS011;68282;42.698;23.350;2024-03-06T05:34:23;23.10;;;11.05;;
78893;SDS011;68282;42.698;23.350;2024-03-06T05:36:49;19.30;;;11.43;;
78893;SDS011;68282;42.698;23.350;2024-03-06T05:39:15;17.50;;;9.40;;
78893;SDS011;68282;42.698;23.350;2024-03-06T05:41:43;17.98;;;8.32;;
78893;SDS011;68282;42.698;23.350;2024-03-06T05:44:08;20.77;;;9.48;;
78893;SDS011;68282;42.698;23.350;2024-03-06T05:46:34;19.35;;;8.98;;
78893;SDS011;68282;42.698;23.350;2024-03-06T05:49:01;17.08;;;8.73;;
78893;SDS011;68282;42.698;23.350;2024-03-06T05:51:27;17.58;;;8.75;;
78893;SDS011;68282;42.698;23.350;2024-03-06T05:53:53;14.05;;;7.65;;
78893;SDS011;68282;42.698;23.350;2024-03-06T05:56:19;16.95;;;8.65;;
78893;SDS011;68282;42.698;23.350;2024-03-06T05:58:44;18.17;;;8.23;;
78893;SDS011;68282;42.698;23.350;2024-03-06T06:01:14;29.38;;;8.57;;
78893;SDS011;68282;42.698;23.350;2024-03-06T06:03:40;16.77;;;8.55;;
78893;SDS011;68282;42.698;23.350;2024-03-06T06:06:06;16.02;;;7.07;;
78893;SDS011;68282;42.698;23.350;2024-03-06T06:08:33;18.23;;;9.10;;
78893;SDS011;68282;42.698;23.350;2024-03-06T06:11:04;20.30;;;8.40;;
78893;SDS011;68282;42.698;23.350;2024-03-06T06:15:54;15.05;;;8.75;;
78893;SDS011;68282;42.698;23.350;2024-03-06T06:18:22;12.25;;;7.47;;
78893;SDS011;68282;42.698;23.350;2024-03-06T06:20:48;19.27;;;8.32;;
78893;SDS011;68282;42.698;23.350;2024-03-06T06:23:13;17.05;;;9.38;;
78893;SDS011;68282;42.698;23.350;2024-03-06T06:25:39;16.55;;;8.35;;
78893;SDS011;68282;42.698;23.350;2024-03-06T06:28:06;17.10;;;8.57;;
78893;SDS011;68282;42.698;23.350;2024-03-06T06:30:31;19.23;;;9.70;;
78893;SDS011;68282;42.698;23.350;2024-03-06T06:32:57;20.10;;;9.52;;
78893;SDS011;68282;42.698;23.350;2024-03-06T06:35:23;18.95;;;8.15;;
78893;SDS011;68282;42.698;23.350;2024-03-06T06:37:50;20.00;;;8.88;;
78893;SDS011;68282;42.698;23.350;2024-03-06T06:40:15;17.85;;;8.45;;
78893;SDS011;68282;42.698;23.350;2024-03-06T06:42:45;14.98;;;7.18;;
78893;SDS011;68282;42.698;23.350;2024-03-06T06:45:17;14.35;;;8.35;;
78893;SDS011;68282;42.698;23.350;2024-03-06T06:47:44;19.35;;;7.57;;
78893;SDS011;68282;42.698;23.350;2024-03-06T06:50:11;20.02;;;8.15;;
78893;SDS011;68282;42.698;23.350;2024-03-06T06:52:37;14.75;;;7.22;;
78893;SDS011;68282;42.698;23.350;2024-03-06T06:55:03;13.90;;;7.95;;
78893;SDS011;68282;42.698;23.350;2024-03-06T06:57:29;17.63;;;7.85;;
78893;SDS011;68282;42.698;23.350;2024-03-06T06:59:55;15.10;;;7.72;;
78893;SDS011;68282;42.698;23.350;2024-03-06T07:02:21;16.25;;;9.93;;
78893;SDS011;68282;42.698;23.350;2024-03-06T07:04:47;22.60;;;8.90;;
78893;SDS011;68282;42.698;23.350;2024-03-06T07:07:15;15.43;;;8.60;;
78893;SDS011;68282;42.698;23.350;2024-03-06T07:09:40;24.25;;;9.27;;
78893;SDS011;68282;42.698;23.350;2024-03-06T07:12:06;14.65;;;7.57;;
78893;SDS011;68282;42.698;23.350;2024-03-06T07:14:33;17.83;;;8.38;;
78893;SDS011;68282;42.698;23.350;2024-03-06T07:16:58;20.98;;;8.77;;
78893;SDS011;68282;42.698;23.350;2024-03-06T07:19:24;18.80;;;8.82;;
78893;SDS011;68282;42.698;23.350;2024-03-06T07:21:49;15.57;;;7.55;;
78893;SDS011;68282;42.698;23.350;2024-03-06T07:24:15;15.85;;;6.85;;
78893;SDS011;68282;42.698;23.350;2024-03-06T07:26:41;15.55;;;8.20;;
78893;SDS011;68282;42.698;23.350;2024-03-06T07:29:06;16.58;;;9.07;;
78893;SDS011;68282;42.698;23.350;2024-03-06T07:31:38;14.88;;;7.88;;
78893;SDS011;68282;42.698;23.350;2024-03-06T07:34:04;22.85;;;9.88;;
78893;SDS011;68282;42.698;23.350;2024-03-06T07:36:33;17.67;;;9.68;;
78893;SDS011;68282;42.698;23.350;2024-03-06T07:38:59;18.98;;;10.30;;
78893;SDS011;68282;42.698;23.350;2024-03-06T07:41:25;21.45;;;9.88;;
78893;SDS011;68282;42.698;23.350;2024-03-06T07:43:51;18.70;;;11.27;;
78893;SDS011;68282;42.698;23.350;2024-03-06T07:46:17;21.13;;;11.43;;
78893;SDS011;68282;42.698;23.350;2024-03-06T07:48:43;24.85;;;11.63;;
78893;SDS011;68282;42.698;23.350;2024-03-06T07:51:09;19.05;;;12.60;;
78893;SDS011;68282;42.698;23.350;2024-03-06T07:53:35;19.83;;;11.23;;
78893;SDS011;68282;42.698;23.350;2024-03-06T07:56:01;25.20;;;12.35;;
78893;SDS011;68282;42.698;23.350;2024-03-06T07:58:28;18.27;;;11.57;;
78893;SDS011;68282;42.698;23.350;2024-03-06T08:00:53;24.63;;;12.13;;
78893;SDS011;68282;42.698;23.350;2024-03-06T08:03:20;26.25;;;13.07;;
78893;SDS011;68282;42.698;23.350;2024-03-06T08:05:47;23.10;;;11.98;;
78893;SDS011;68282;42.698;23.350;2024-03-06T08:08:16;22.00;;;12.88;;
78893;SDS011;68282;42.698;23.350;2024-03-06T08:10:41;23.27;;;12.82;;
78893;SDS011;68282;42.698;23.350;2024-03-06T08:13:10;21.73;;;11.93;;
78893;SDS011;68282;42.698;23.350;2024-03-06T08:15:37;22.23;;;12.13;;
78893;SDS011;68282;42.698;23.350;2024-03-06T08:18:02;22.42;;;11.68;;
78893;SDS011;68282;42.698;23.350;2024-03-06T08:20:31;18.30;;;11.73;;
78893;SDS011;68282;42.698;23.350;2024-03-06T08:22:57;24.27;;;11.48;;
78893;SDS011;68282;42.698;23.350;2024-03-06T08:25:23;26.55;;;12.23;;
78893;SDS011;68282;42.698;23.350;2024-03-06T08:27:49;21.58;;;11.68;;
78893;SDS011;68282;42.698;23.350;2024-03-06T08:30:15;25.85;;;11.55;;
78893;SDS011;68282;42.698;23.350;2024-03-06T08:32:44;20.13;;;11.82;;
78893;SDS011;68282;42.698;23.350;2024-03-06T08:35:11;23.10;;;12.18;;
78893;SDS011;68282;42.698;23.350;2024-03-06T08:37:41;24.92;;;12.52;;
78893;SDS011;68282;42.698;23.350;2024-03-06T08:40:09;22.08;;;11.95;;
78893;SDS011;68282;42.698;23.350;2024-03-06T08:42:39;23.13;;;11.68;;
78893;SDS011;68282;42.698;23.350;2024-03-06T08:45:08;22.27;;;11.80;;
78893;SDS011;68282;42.698;23.350;2024-03-06T08:47:34;20.73;;;10.57;;
78893;SDS011;68282;42.698;23.350;2024-03-06T08:50:00;26.10;;;12.02;;
78893;SDS011;68282;42.698;23.350;2024-03-06T08:52:29;22.88;;;11.18;;
78893;SDS011;68282;42.698;23.350;2024-03-06T08:54:56;23.98;;;11.90;;
78893;SDS011;68282;42.698;23.350;2024-03-06T08:57:23;20.92;;;11.52;;
78893;SDS011;68282;42.698;23.350;2024-03-06T08:59:51;23.65;;;11.00;;
78893;SDS011;68282;42.698;23.350;2024-03-06T09:02:17;20.20;;;11.30;;
78893;SDS011;68282;42.698;23.350;2024-03-06T09:04:44;21.92;;;11.75;;
78893;SDS011;68282;42.698;23.350;2024-03-06T09:07:11;20.52;;;11.65;;
78893;SDS011;68282;42.698;23.350;2024-03-06T09:09:37;18.25;;;10.98;;
78893;SDS011;68282;42.698;23.350;2024-03-06T09:12:04;19.13;;;12.38;;
78893;SDS011;68282;42.698;23.350;2024-03-06T09:14:33;19.08;;;10.43;;
78893;SDS011;68282;42.698;23.350;2024-03-06T09:16:59;16.20;;;8.10;;
78893;SDS011;68282;42.698;23.350;2024-03-06T09:19:25;14.80;;;8.02;;
78893;SDS011;68282;42.698;23.350;2024-03-06T09:21:51;15.35;;;8.25;;
78893;SDS011;68282;42.698;23.350;2024-03-06T09:24:17;17.98;;;8.43;;
78893;SDS011;68282;42.698;23.350;2024-03-06T09:26:45;17.48;;;8.90;;
78893;SDS011;68282;42.698;23.350;2024-03-06T09:31:37;16.48;;;8.20;;
78893;SDS011;68282;42.698;23.350;2024-03-06T09:34:03;18.70;;;9.25;;
78893;SDS011;68282;42.698;23.350;2024-03-06T09:36:28;15.65;;;9.65;;
78893;SDS011;68282;42.698;23.350;2024-03-06T09:38:54;18.63;;;9.25;;
78893;SDS011;68282;42.698;23.350;2024-03-06T09:41:21;13.80;;;7.95;;
78893;SDS011;68282;42.698;23.350;2024-03-06T09:43:47;12.27;;;6.78;;
78893;SDS011;68282;42.698;23.350;2024-03-06T09:46:13;14.30;;;7.55;;
78893;SDS011;68282;42.698;23.350;2024-03-06T09:48:45;15.93;;;7.53;;
78893;SDS011;68282;42.698;23.350;2024-03-06T09:51:12;18.70;;;8.90;;
78893;SDS011;68282;42.698;23.350;2024-03-06T09:53:38;10.95;;;7.25;;
78893;SDS011;68282;42.698;23.350;2024-03-06T09:56:04;17.88;;;7.80;;
78893;SDS011;68282;42.698;23.350;2024-03-06T09:58:31;13.02;;;6.90;;
78893;SDS011;68282;42.698;23.350;2024-03-06T10:00:58;11.27;;;5.93;;
78893;SDS011;68282;42.698;23.350;2024-03-06T10:03:25;11.18;;;5.65;;
78893;SDS011;68282;42.698;23.350;2024-03-06T10:05:52;9.68;;;6.25;;
78893;SDS011;68282;42.698;23.350;2024-03-06T10:08:19;14.88;;;7.75;;
78893;SDS011;68282;42.698;23.350;2024-03-06T10:10:49;13.43;;;7.13;;
78893;SDS011;68282;42.698;23.350;2024-03-06T10:13:17;15.55;;;7.18;;
78893;SDS011;68282;42.698;23.350;2024-03-06T10:15:59;13.82;;;6.82;;
78893;SDS011;68282;42.698;23.350;2024-03-06T10:18:26;13.77;;;7.32;;
78893;SDS011;68282;42.698;23.350;2024-03-06T10:20:53;14.70;;;8.30;;
78893;SDS011;68282;42.698;23.350;2024-03-06T10:23:19;17.42;;;7.63;;
78893;SDS011;68282;42.698;23.350;2024-03-06T10:25:45;17.33;;;8.35;;
78893;SDS011;68282;42.698;23.350;2024-03-06T10:28:15;11.82;;;6.82;;
78893;SDS011;68282;42.698;23.350;2024-03-06T10:30:42;10.57;;;6.43;;
78893;SDS011;68282;42.698;23.350;2024-03-06T10:33:08;13.07;;;7.40;;
78893;SDS011;68282;42.698;23.350;2024-03-06T10:35:35;13.57;;;6.22;;
78893;SDS011;68282;42.698;23.350;2024-03-06T10:38:02;10.57;;;6.22;;
78893;SDS011;68282;42.698;23.350;2024-03-06T10:40:33;10.75;;;5.93;;
78893;SDS011;68282;42.698;23.350;2024-03-06T10:43:00;12.88;;;6.03;;
78893;SDS011;68282;42.698;23.350;2024-03-06T10:48:03;8.40;;;5.25;;
78893;SDS011;68282;42.698;23.350;2024-03-06T10:50:29;13.40;;;5.10;;
78893;SDS011;68282;42.698;23.350;2024-03-06T10:52:56;13.32;;;5.65;;
78893;SDS011;68282;42.698;23.350;2024-03-06T10:55:23;10.63;;;5.50;;
78893;SDS011;68282;42.698;23.350;2024-03-06T10:57:51;8.48;;;5.05;;
78893;SDS011;68282;42.698;23.350;2024-03-06T11:00:18;8.07;;;5.40;;
78893;SDS011;68282;42.698;23.350;2024-03-06T11:02:48;8.10;;;4.53;;
78893;SDS011;68282;42.698;23.350;2024-03-06T11:05:14;8.45;;;5.03;;
78893;SDS011;68282;42.698;23.350;2024-03-06T11:07:41;9.43;;;5.53;;
78893;SDS011;68282;42.698;23.350;2024-03-06T11:10:09;9.18;;;5.65;;
78893;SDS011;68282;42.698;23.350;2024-03-06T11:12:42;9.55;;;5.15;;
78893;SDS011;68282;42.698;23.350;2024-03-06T11:15:13;10.65;;;5.03;;
78893;SDS011;68282;42.698;23.350;2024-03-06T11:17:40;9.48;;;5.95;;
78893;SDS011;68282;42.698;23.350;2024-03-06T11:20:12;9.90;;;5.80;;
78893;SDS011;68282;42.698;23.350;2024-03-06T11:28:23;10.30;;;5.88;;
78893;SDS011;68282;42.698;23.350;2024-03-06T11:30:56;9.57;;;5.30;;
78893;SDS011;68282;42.698;23.350;2024-03-06T11:36:20;9.38;;;5.55;;
78893;SDS011;68282;42.698;23.350;2024-03-06T11:41:26;12.85;;;6.72;;
78893;SDS011;68282;42.698;23.350;2024-03-06T11:43:59;12.95;;;5.72;;
78893;SDS011;68282;42.698;23.350;2024-03-06T11:49:27;12.13;;;5.80;;
78893;SDS011;68282;42.698;23.350;2024-03-06T11:52:02;15.80;;;5.65;;
78893;SDS011;68282;42.698;23.350;2024-03-06T11:54:36;10.57;;;4.85;;
78893;SDS011;68282;42.698;23.350;2024-03-06T11:57:05;9.63;;;5.40;;
78893;SDS011;68282;42.698;23.350;2024-03-06T11:59:32;13.32;;;6.25;;
78893;SDS011;68282;42.698;23.350;2024-03-06T12:02:01;12.32;;;5.88;;
78893;SDS011;68282;42.698;23.350;2024-03-06T12:04:32;10.70;;;5.97;;
78893;SDS011;68282;42.698;23.350;2024-03-06T12:07:04;6.95;;;5.00;;
78893;SDS011;68282;42.698;23.350;2024-03-06T12:09:34;10.75;;;5.90;;
78893;SDS011;68282;42.698;23.350;2024-03-06T12:12:00;10.15;;;6.05;;
78893;SDS011;68282;42.698;23.350;2024-03-06T12:14:27;15.20;;;5.65;;
78893;SDS011;68282;42.698;23.350;2024-03-06T12:16:59;13.30;;;5.82;;
78893;SDS011;68282;42.698;23.350;2024-03-06T12:19:32;11.68;;;5.40;;
78893;SDS011;68282;42.698;23.350;2024-03-06T12:22:05;9.68;;;6.00;;
78893;SDS011;68282;42.698;23.350;2024-03-06T12:24:30;11.13;;;5.65;;
78893;SDS011;68282;42.698;23.350;2024-03-06T12:27:01;9.05;;;5.22;;
78893;SDS011;68282;42.698;23.350;2024-03-06T12:29:34;9.27;;;5.28;;
78893;SDS011;68282;42.698;23.350;2024-03-06T12:32:02;13.48;;;6.80;;
78893;SDS011;68282;42.698;23.350;2024-03-06T12:34:28;8.02;;;4.82;;
78893;SDS011;68282;42.698;23.350;2024-03-06T12:36:55;10.43;;;4.63;;
78893;SDS011;68282;42.698;23.350;2024-03-06T12:39:21;7.43;;;4.63;;
78893;SDS011;68282;42.698;23.350;2024-03-06T12:41:49;9.13;;;5.00;;
78893;SDS011;68282;42.698;23.350;2024-03-06T12:44:16;7.93;;;4.50;;
78893;SDS011;68282;42.698;23.350;2024-03-06T12:46:43;8.25;;;4.78;;
78893;SDS011;68282;42.698;23.350;2024-03-06T12:49:09;7.32;;;4.28;;
78893;SDS011;68282;42.698;23.350;2024-03-06T12:51:34;7.18;;;4.13;;
78893;SDS011;68282;42.698;23.350;2024-03-06T12:54:00;5.18;;;3.45;;
78893;SDS011;68282;42.698;23.350;2024-03-06T12:56:26;9.40;;;4.65;;
78893;SDS011;68282;42.698;23.350;2024-03-06T12:58:52;6.80;;;4.55;;
78893;SDS011;68282;42.698;23.350;2024-03-06T13:01:17;12.35;;;5.15;;
78893;SDS011;68282;42.698;23.350;2024-03-06T13:03:44;12.13;;;5.47;;
78893;SDS011;68282;42.698;23.350;2024-03-06T13:06:10;9.27;;;4.65;;
78893;SDS011;68282;42.698;23.350;2024-03-06T13:08:37;9.65;;;4.55;;
78893;SDS011;68282;42.698;23.350;2024-03-06T13:11:03;9.90;;;4.38;;
78893;SDS011;68282;42.698;23.350;2024-03-06T13:13:28;7.13;;;4.18;;
78893;SDS011;68282;42.698;23.350;2024-03-06T13:15:55;5.65;;;3.75;;
78893;SDS011;68282;42.698;23.350;2024-03-06T13:18:21;7.88;;;3.90;;
78893;SDS011;68282;42.698;23.350;2024-03-06T13:20:47;7.53;;;4.50;;
78893;SDS011;68282;42.698;23.350;2024-03-06T13:23:14;6.65;;;4.13;;
78893;SDS011;68282;42.698;23.350;2024-03-06T13:25:39;5.90;;;3.88;;
78893;SDS011;68282;42.698;23.350;2024-03-06T13:28:05;5.88;;;3.80;;
78893;SDS011;68282;42.698;23.350;2024-03-06T13:30:31;6.82;;;3.70;;
78893;SDS011;68282;42.698;23.350;2024-03-06T13:32:57;5.88;;;3.53;;
78893;SDS011;68282;42.698;23.350;2024-03-06T13:35:23;5.82;;;3.58;;
78893;SDS011;68282;42.698;23.350;2024-03-06T13:37:50;5.43;;;3.60;;
78893;SDS011;68282;42.698;23.350;2024-03-06T13:40:17;5.72;;;3.38;;
78893;SDS011;68282;42.698;23.350;2024-03-06T13:42:42;8.77;;;3.50;;
78893;SDS011;68282;42.698;23.350;2024-03-06T13:45:09;6.75;;;3.33;;
78893;SDS011;68282;42.698;23.350;2024-03-06T13:47:41;6.85;;;3.75;;
78893;SDS011;68282;42.698;23.350;2024-03-06T13:50:08;6.70;;;3.72;;
78893;SDS011;68282;42.698;23.350;2024-03-06T13:52:38;13.18;;;4.03;;
78893;SDS011;68282;42.698;23.350;2024-03-06T13:55:04;7.05;;;3.97;;
78893;SDS011;68282;42.698;23.350;2024-03-06T13:57:39;5.72;;;3.70;;
78893;SDS011;68282;42.698;23.350;2024-03-06T14:00:09;9.82;;;4.45;;
78893;SDS011;68282;42.698;23.350;2024-03-06T14:02:42;6.72;;;3.78;;
78893;SDS011;68282;42.698;23.350;2024-03-06T14:05:13;7.95;;;4.40;;
78893;SDS011;68282;42.698;23.350;2024-03-06T14:07:43;9.02;;;4.00;;
78893;SDS011;68282;42.698;23.350;2024-03-06T14:10:10;7.45;;;3.90;;
78893;SDS011;68282;42.698;23.350;2024-03-06T14:12:38;6.72;;;4.00;;
78893;SDS011;68282;42.698;23.350;2024-03-06T14:15:06;6.25;;;3.78;;
78893;SDS011;68282;42.698;23.350;2024-03-06T14:17:39;7.18;;;4.45;;
78893;SDS011;68282;42.698;23.350;2024-03-06T14:20:05;8.10;;;4.10;;
78893;SDS011;68282;42.698;23.350;2024-03-06T14:22:31;6.68;;;4.03;;
78893;SDS011;68282;42.698;23.350;2024-03-06T14:24:57;6.70;;;3.42;;
78893;SDS011;68282;42.698;23.350;2024-03-06T14:27:22;11.27;;;4.22;;
78893;SDS011;68282;42.698;23.350;2024-03-06T14:29:48;9.98;;;4.32;;
78893;SDS011;68282;42.698;23.350;2024-03-06T14:32:14;8.07;;;4.13;;
78893;SDS011;68282;42.698;23.350;2024-03-06T14:34:43;9.38;;;4.00;;
78893;SDS011;68282;42.698;23.350;2024-03-06T14:37:09;10.27;;;3.83;;
78893;SDS011;68282;42.698;23.350;2024-03-06T14:39:35;10.60;;;6.28;;
78893;SDS011;68282;42.698;23.350;2024-03-06T14:42:01;11.77;;;6.22;;